createdAt,value
2017-04-23T05:35:21.231Z,55
2017-04-23T05:36:01.805Z,52.6
2017-04-23T05:36:42.820Z,50.65
2017-04-23T05:37:23.390Z,48.74
2017-04-23T05:38:04.261Z,48.93
2017-04-23T05:38:45.266Z,48.83
2017-04-23T05:39:26.289Z,49.41
2017-04-23T05:40:06.866Z,46.91
2017-04-23T05:40:47.426Z,48.44
2017-04-23T05:41:28.016Z,49.02
2017-04-23T05:42:08.589Z,49.41
2017-04-23T05:42:49.163Z,49.76
2017-04-23T05:43:29.741Z,48.93
2017-04-23T05:44:10.296Z,48.9
2017-04-23T05:44:50.873Z,48.52
2017-04-23T05:45:31.453Z,49
2017-04-23T05:46:12.031Z,48.33
2017-04-23T05:46:52.612Z,48.13
2017-04-23T05:47:33.188Z,48.71
2017-04-23T05:48:13.766Z,48.52
2017-04-23T05:48:54.344Z,49.57
2017-04-23T05:49:34.924Z,47.75
2017-04-23T05:50:15.508Z,47.08
2017-04-23T05:50:56.090Z,48.23
2017-04-23T05:51:36.671Z,48.9
2017-04-23T05:52:17.251Z,49.38
2017-04-23T05:52:57.834Z,49.19
2017-04-23T05:53:38.398Z,49.1
2017-04-23T05:54:18.969Z,47.94
2017-04-23T05:54:59.561Z,46.6
2017-04-23T05:55:40.137Z,46.89
2017-04-23T05:56:20.725Z,46.31
2017-04-23T05:57:01.297Z,45.45
2017-04-23T05:57:41.875Z,45.36
2017-04-23T05:58:22.451Z,45.16
2017-04-23T05:59:03.034Z,45.54
2017-04-23T05:59:43.611Z,45.93
2017-04-23T06:00:24.193Z,45.52
2017-04-23T06:01:04.774Z,45.43
2017-04-23T06:01:45.364Z,45.9
2017-04-23T06:02:25.937Z,43.99
2017-04-23T06:03:06.520Z,46.19
2017-04-23T06:03:47.121Z,46.19
2017-04-23T06:04:27.706Z,45.62
2017-04-23T06:05:10.012Z,46.39
2017-04-23T06:05:50.606Z,45.52
2017-04-23T06:06:31.178Z,45.23
2017-04-23T06:07:11.758Z,44.56
2017-04-23T06:07:52.331Z,43.9
2017-04-23T06:08:32.906Z,45.74
2017-04-23T06:09:13.491Z,45.43
2017-04-23T06:09:54.074Z,44.66
2017-04-23T06:10:34.649Z,44.47
2017-04-23T06:11:15.227Z,44.47
2017-04-23T06:11:55.800Z,43.51
2017-04-23T06:12:36.372Z,44.09
2017-04-23T06:13:16.955Z,43.9
2017-04-23T06:13:57.535Z,44.56
2017-04-23T06:14:38.102Z,44.66
2017-04-23T06:15:18.686Z,44.09
2017-04-23T06:15:59.261Z,44.09
2017-04-23T06:16:39.845Z,44.37
2017-04-23T06:17:20.422Z,44.18
2017-04-23T06:18:01.003Z,44.37
2017-04-23T06:18:41.590Z,43.8
2017-04-23T06:19:22.172Z,42.94
2017-04-23T06:20:02.752Z,42.65
2017-04-23T06:20:43.333Z,43.99
2017-04-23T06:21:23.908Z,42.55
2017-04-23T06:22:04.477Z,43.03
2017-04-23T06:22:45.062Z,43.6
2017-04-23T06:23:25.637Z,43.7
2017-04-23T06:24:06.222Z,43.7
2017-04-23T06:24:46.798Z,43.15
2017-04-23T06:25:27.377Z,42.96
2017-04-23T06:26:08.204Z,44.27
2017-04-23T06:26:48.887Z,44.2
2017-04-23T06:27:29.673Z,43.91
2017-04-23T06:28:10.254Z,43.53
2017-04-23T06:28:50.871Z,43.34
2017-04-23T06:29:31.964Z,42.77
2017-04-23T06:30:12.609Z,43.24
2017-04-23T06:30:53.300Z,44.3
2017-04-23T06:31:33.888Z,43.73
2017-04-23T06:32:14.690Z,43.73
2017-04-23T06:32:55.501Z,41.9
2017-04-23T06:33:36.346Z,41.9
2017-04-23T06:34:16.995Z,41.9
2017-04-23T06:34:57.648Z,41.42
2017-04-23T06:35:38.219Z,41.13
2017-04-23T06:36:18.927Z,41.61
2017-04-23T06:36:59.848Z,42.19
2017-04-23T06:37:40.492Z,42.29
2017-04-23T06:38:21.269Z,41.06
2017-04-23T06:39:02.071Z,42.1
2017-04-23T06:39:42.929Z,41.93
2017-04-23T06:40:23.810Z,42.77
2017-04-23T06:41:04.870Z,41.9
2017-04-23T06:41:45.540Z,40.84
2017-04-23T06:42:26.238Z,41.04
2017-04-23T06:43:07.180Z,41.71
2017-04-23T06:43:48.268Z,41.9
2017-04-23T06:44:29.304Z,41.52
2017-04-23T06:45:11.019Z,41.04
2017-04-23T06:45:51.831Z,41.8
2017-04-23T06:46:32.413Z,41.42
2017-04-23T06:47:13.023Z,42.47
2017-04-23T06:47:54.098Z,41.9
2017-04-23T06:48:35.111Z,41.71
2017-04-23T06:49:16.085Z,41.71
2017-04-23T06:49:57.289Z,41.23
2017-04-23T06:50:38.409Z,39.89
2017-04-23T06:51:19.057Z,41.42
2017-04-23T06:52:00.029Z,41.04
2017-04-23T06:52:40.995Z,40.84
2017-04-23T06:53:22.002Z,41.42
2017-04-23T06:54:02.815Z,41.13
2017-04-23T06:54:43.728Z,41.9
2017-04-23T06:55:24.720Z,42.77
2017-04-23T06:56:06.256Z,42.86
2017-04-23T06:56:47.639Z,40.66
2017-04-23T06:57:28.364Z,41.71
2017-04-23T06:58:08.968Z,43.15
2017-04-23T06:58:49.556Z,44.4
2017-04-23T06:59:30.128Z,46.12
2017-04-23T07:00:11.206Z,47.01
2017-04-23T07:00:51.790Z,47.01
2017-04-23T07:01:32.367Z,46.81
2017-04-23T07:02:13.343Z,45.95
2017-04-23T07:02:53.935Z,44.61
2017-04-23T07:03:34.577Z,43.77
2017-04-23T07:04:15.146Z,43.38
2017-04-23T07:04:55.739Z,43.48
2017-04-23T07:05:36.317Z,43.1
2017-04-23T07:06:17.522Z,42.52
2017-04-23T07:06:58.113Z,40.91
2017-04-23T07:07:38.827Z,39.73
2017-04-23T07:08:19.809Z,38.96
2017-04-23T07:09:00.407Z,38.2
2017-04-23T07:09:41.201Z,37.07
2017-04-23T07:10:22.032Z,37.74
2017-04-23T07:11:02.974Z,38.41
2017-04-23T07:11:43.811Z,38.22
2017-04-23T07:12:24.595Z,39.66
2017-04-23T07:13:05.175Z,38.41
2017-04-23T07:13:45.782Z,39.37
2017-04-23T07:14:26.428Z,41.29
2017-04-23T07:15:07.008Z,41.2
2017-04-23T07:15:47.785Z,40.23
2017-04-23T07:16:28.598Z,38.43
2017-04-23T07:17:09.203Z,36.97
2017-04-23T07:17:50.022Z,36.32
2017-04-23T07:18:30.723Z,35.74
2017-04-23T07:19:11.659Z,36.03
2017-04-23T07:19:52.435Z,35.64
2017-04-23T07:20:33.438Z,36.22
2017-04-23T07:21:14.267Z,35.74
2017-04-23T07:21:55.307Z,36.32
2017-04-23T07:22:36.257Z,35.83
2017-04-23T07:23:17.166Z,36.32
2017-04-23T07:23:57.929Z,37.08
2017-04-23T07:24:38.645Z,37.18
2017-04-23T07:25:19.219Z,37.85
2017-04-23T07:26:00.137Z,35.83
2017-04-23T07:26:41.446Z,35.93
2017-04-23T07:27:22.407Z,35.74
2017-04-23T07:28:02.978Z,35.74
2017-04-23T07:28:43.615Z,35.36
2017-04-23T07:29:24.201Z,34.2
2017-04-23T07:30:04.799Z,34.88
2017-04-23T07:30:46.342Z,35.83
2017-04-23T07:31:27.392Z,35.74
2017-04-23T07:32:08.313Z,35.36
2017-04-23T07:32:49.160Z,35.36
2017-04-23T07:33:30.107Z,35.85
2017-04-23T07:34:11.530Z,35.28
2017-04-23T07:34:52.209Z,35.28
2017-04-23T07:35:33.219Z,34.12
2017-04-23T07:36:14.359Z,33.07
2017-04-23T07:36:55.021Z,33.34
2017-04-23T07:37:36.343Z,34.2
2017-04-23T07:38:16.588Z,34.3
2017-04-23T07:38:57.173Z,34.88
2017-04-23T07:39:38.200Z,34.97
2017-04-23T07:40:18.839Z,35.06
2017-04-23T07:40:59.603Z,33.44
2017-04-23T07:41:40.475Z,34.2
2017-04-23T07:42:21.337Z,34.59
2017-04-23T07:43:02.031Z,34.3
2017-04-23T07:43:42.733Z,34.78
2017-04-23T07:44:24.798Z,34.2
2017-04-23T07:45:04.675Z,34.3
2017-04-23T07:45:45.262Z,35.16
2017-04-23T07:46:26.014Z,35.16
2017-04-23T07:47:06.591Z,34.3
2017-04-23T07:47:47.502Z,33.91
2017-04-23T07:48:28.296Z,34.22
2017-04-23T07:49:08.862Z,34.12
2017-04-23T07:49:49.453Z,34.61
2017-04-23T07:50:30.326Z,34.8
2017-04-23T07:51:11.034Z,33.45
2017-04-23T07:51:52.024Z,32.87
2017-04-23T07:52:32.915Z,33.16
2017-04-23T07:53:13.506Z,32.97
2017-04-23T07:53:54.517Z,34.99
2017-04-23T07:54:35.108Z,34.49
2017-04-23T07:55:15.974Z,33.53
2017-04-23T07:55:56.552Z,34.11
2017-04-23T07:56:37.135Z,34.2
2017-04-23T07:57:17.753Z,34.59
2017-04-23T07:57:58.804Z,35.45
2017-04-23T07:58:39.379Z,34.68
2017-04-23T07:59:20.455Z,34.59
2017-04-23T08:00:01.027Z,36.22
2017-04-23T08:00:41.850Z,36.22
2017-04-23T08:01:22.770Z,34.31
2017-04-23T08:02:03.753Z,33.54
2017-04-23T08:02:44.482Z,32.78
2017-04-23T08:03:25.582Z,32.2
2017-04-23T08:04:06.828Z,33.54
2017-04-23T08:04:47.532Z,34.8
2017-04-23T08:05:28.502Z,34.03
2017-04-23T08:06:09.330Z,32.86
2017-04-23T08:06:50.317Z,33.44
2017-04-23T08:07:31.136Z,33.24
2017-04-23T08:08:11.928Z,33.45
2017-04-23T08:08:52.883Z,33.16
2017-04-23T08:09:34.028Z,33.16
2017-04-23T08:10:15.102Z,32.87
2017-04-23T08:10:55.754Z,32.49
2017-04-23T08:11:36.520Z,32.3
2017-04-23T08:12:17.361Z,32.68
2017-04-23T08:12:58.067Z,32.2
2017-04-23T08:13:38.910Z,31.74
2017-04-23T08:14:19.764Z,32.12
2017-04-23T08:15:00.902Z,31.93
2017-04-23T08:15:42.120Z,31.54
2017-04-23T08:16:22.871Z,32.12
2017-04-23T08:17:03.698Z,31.83
2017-04-23T08:17:44.457Z,31.46
2017-04-23T08:18:25.131Z,31.37
2017-04-23T08:19:06.252Z,31.27
2017-04-23T08:19:46.887Z,31.18
2017-04-23T08:20:28.139Z,31.65
2017-04-23T08:21:08.724Z,31.08
2017-04-23T08:21:49.608Z,30.98
2017-04-23T08:22:30.746Z,30.88
2017-04-23T08:23:11.544Z,30.88
2017-04-23T08:23:52.204Z,30.69
2017-04-23T08:24:33.247Z,32.04
2017-04-23T08:25:14.079Z,32.52
2017-04-23T08:25:54.654Z,31.95
2017-04-23T08:26:35.880Z,30.88
2017-04-23T08:27:16.923Z,31.18
2017-04-23T08:27:57.963Z,31.16
2017-04-23T08:28:38.628Z,31.35
2017-04-23T08:29:19.437Z,31.54
2017-04-23T08:30:00.372Z,31.64
2017-04-23T08:30:41.076Z,32.98
2017-04-23T08:31:21.747Z,32.87
2017-04-23T08:32:02.792Z,33.36
2017-04-23T08:32:43.767Z,33.07
2017-04-23T08:33:25.032Z,33.36
2017-04-23T08:34:05.893Z,32.3
2017-04-23T08:34:46.478Z,32.31
2017-04-23T08:35:27.092Z,32.03
2017-04-23T08:36:07.666Z,31.64
2017-04-23T08:36:48.431Z,31.93
2017-04-23T08:37:29.097Z,32.31
2017-04-23T08:38:09.848Z,31.93
2017-04-23T08:38:50.436Z,31.54
2017-04-23T08:39:31.416Z,31.35
2017-04-23T08:40:11.994Z,31.26
2017-04-23T08:40:52.813Z,33.1
2017-04-23T08:41:33.395Z,35.12
2017-04-23T08:42:13.972Z,35.7
2017-04-23T08:42:54.565Z,36.08
2017-04-23T08:43:35.162Z,35.99
2017-04-23T08:44:15.744Z,33.87
2017-04-23T08:44:56.319Z,33.77
2017-04-23T08:45:36.908Z,33.4
2017-04-23T08:46:17.489Z,33.29
2017-04-23T08:46:58.070Z,32.71
2017-04-23T08:47:38.656Z,32.34
2017-04-23T08:48:19.243Z,31.87
2017-04-23T08:48:59.832Z,31.96
2017-04-23T08:50:52.434Z,31.67
2017-04-23T08:51:32.997Z,31.38
2017-04-23T08:52:13.563Z,31.19
2017-04-23T08:52:54.120Z,31.67
2017-04-23T08:53:34.688Z,32.82
2017-04-23T08:54:22.096Z,32.73
2017-04-23T08:55:02.679Z,32.73
2017-04-23T08:55:43.256Z,31.49
2017-04-23T08:56:23.825Z,31.59
2017-04-23T08:57:19.210Z,30.91
2017-04-23T08:58:00.038Z,30.73
2017-04-23T08:58:40.629Z,30.8
2017-04-23T08:59:21.277Z,30.04
2017-04-23T09:00:01.850Z,31.48
2017-04-23T09:00:42.594Z,30.32
2017-04-23T09:01:23.169Z,31.77
2017-04-23T09:02:04.203Z,30.71
2017-04-23T09:02:45.262Z,30.13
2017-04-23T09:03:26.315Z,29.83
2017-04-23T09:04:07.354Z,31.18
2017-04-23T09:04:48.159Z,30.98
2017-04-23T09:05:28.740Z,30.4
2017-04-23T09:06:09.336Z,31.65
2017-04-23T09:06:49.922Z,32.43
2017-04-23T09:07:30.499Z,31.56
2017-04-23T09:08:11.089Z,29.63
2017-04-23T09:08:51.669Z,30.4
2017-04-23T09:09:32.257Z,31.85
2017-04-23T09:10:12.843Z,33.1
2017-04-23T09:10:53.428Z,32.82
2017-04-23T09:11:34.003Z,31.19
2017-04-23T09:12:14.595Z,30.34
2017-04-23T09:12:55.177Z,31.4
2017-04-23T09:13:36.187Z,30.07
2017-04-23T09:14:16.766Z,30.07
2017-04-23T09:14:57.913Z,29.79
2017-04-23T09:15:39.234Z,28.64
2017-04-23T09:16:20.284Z,28.84
2017-04-23T09:17:00.856Z,28.74
2017-04-23T09:17:41.552Z,28.36
2017-04-23T09:18:22.586Z,28.36
2017-04-23T09:19:03.273Z,27.68
2017-04-23T09:19:43.974Z,27.29
2017-04-23T09:20:24.557Z,27.11
2017-04-23T09:21:05.297Z,28.26
2017-04-23T09:21:46.071Z,29.9
2017-04-23T09:22:26.656Z,29.9
2017-04-23T09:23:07.223Z,30.19
2017-04-23T09:23:47.814Z,30.27
2017-04-23T09:24:28.596Z,29.41
2017-04-23T09:25:09.182Z,29.6
2017-04-23T09:25:49.753Z,29.89
2017-04-23T09:26:30.323Z,29.5
2017-04-23T09:27:10.906Z,29.29
2017-04-23T09:27:51.486Z,30.35
2017-04-23T09:28:32.108Z,30.07
2017-04-23T09:29:12.676Z,30.16
2017-04-23T09:29:53.546Z,29.97
2017-04-23T09:30:34.122Z,30.26
2017-04-23T09:31:14.705Z,30.66
2017-04-23T09:31:55.288Z,29.6
2017-04-23T09:32:35.875Z,29.6
2017-04-23T09:33:16.453Z,30.1
2017-04-23T09:33:57.038Z,29.9
2017-04-23T09:34:37.896Z,29.22
2017-04-23T09:35:18.493Z,27.97
2017-04-23T09:35:59.203Z,27.6
2017-04-23T09:36:39.788Z,27.29
2017-04-23T09:37:20.363Z,28.18
2017-04-23T09:38:00.943Z,29.22
2017-04-23T09:38:41.522Z,27.97
2017-04-23T09:39:22.260Z,28.26
2017-04-23T09:40:03.370Z,30
2017-04-23T09:40:43.949Z,29.21
2017-04-23T09:41:24.665Z,28.92
2017-04-23T09:42:05.244Z,28.15
2017-04-23T09:42:45.827Z,29.39
2017-04-23T09:43:26.408Z,30.83
2017-04-23T09:44:06.990Z,29.38
2017-04-23T09:44:47.566Z,29.28
2017-04-23T09:45:28.147Z,30.73
2017-04-23T09:46:08.735Z,30.82
2017-04-23T09:46:49.394Z,32.06
2017-04-23T09:47:29.977Z,33.21
2017-04-23T09:48:10.550Z,32.06
2017-04-23T09:48:51.136Z,32.34
2017-04-23T09:49:31.715Z,33.02
2017-04-23T09:50:12.384Z,34.37
2017-04-23T09:50:52.969Z,35.5
2017-04-23T09:51:33.553Z,36.47
2017-04-23T09:52:14.641Z,35.81
2017-04-23T09:52:55.228Z,35.62
2017-04-23T09:53:35.808Z,34.94
2017-04-23T09:54:16.389Z,34.17
2017-04-23T09:54:56.971Z,34.56
2017-04-23T09:55:37.557Z,35.64
2017-04-23T09:56:18.148Z,34.58
2017-04-23T09:56:58.773Z,33.03
2017-04-23T09:57:39.341Z,32.76
2017-04-23T09:58:19.916Z,31.32
2017-04-23T09:59:00.554Z,31.41
2017-04-23T09:59:41.210Z,31.22
2017-04-23T10:00:21.869Z,30.93
2017-04-23T10:01:02.896Z,30.26
2017-04-23T10:01:43.467Z,30.07
2017-04-23T10:02:24.042Z,28.73
2017-04-23T10:03:04.712Z,26.8
2017-04-23T10:03:45.280Z,27.38
2017-04-23T10:04:25.856Z,26.62
2017-04-23T10:05:06.418Z,26.91
2017-04-23T10:05:46.991Z,26.62
2017-04-23T10:06:27.568Z,27.87
2017-04-23T10:07:08.144Z,27.2
2017-04-23T10:07:48.730Z,27.01
2017-04-23T10:08:29.311Z,25.66
2017-04-23T10:09:09.919Z,25.46
2017-04-23T10:09:50.475Z,25.46
2017-04-23T10:10:31.060Z,25.37
2017-04-23T10:11:11.647Z,25.37
2017-04-23T10:11:52.224Z,25.64
2017-04-23T10:12:32.807Z,26.22
2017-04-23T10:13:13.379Z,26.03
2017-04-23T10:13:53.971Z,26.7
2017-04-23T10:14:34.553Z,27.76
2017-04-23T10:15:15.137Z,27.76
2017-04-23T10:15:55.718Z,28.05
2017-04-23T10:16:36.302Z,27
2017-04-23T10:17:16.870Z,25.16
2017-04-23T10:17:57.469Z,24.77
2017-04-23T10:18:38.056Z,24.58
2017-04-23T10:19:18.638Z,24.87
2017-04-23T10:19:59.222Z,25.45
2017-04-23T10:20:39.805Z,24.49
2017-04-23T10:21:20.388Z,24.76
2017-04-23T10:22:00.974Z,24.49
2017-04-23T10:22:41.554Z,24.49
2017-04-23T10:23:22.132Z,24.87
2017-04-23T10:24:02.717Z,25.07
2017-04-23T10:24:43.298Z,25.07
2017-04-23T10:25:23.880Z,24.77
2017-04-23T10:26:04.469Z,25.26
2017-04-23T10:26:45.058Z,25.07
2017-04-23T10:27:25.625Z,25.63
2017-04-23T10:28:06.216Z,23.99
2017-04-23T10:28:46.785Z,24.96
2017-04-23T10:29:27.365Z,25.63
2017-04-23T10:30:07.949Z,25.43
2017-04-23T10:30:48.532Z,25.43
2017-04-23T10:31:29.116Z,25.23
2017-04-23T10:32:09.700Z,25.6
2017-04-23T10:34:27.632Z,26.95
2017-04-23T10:35:08.214Z,26.95
2017-04-23T10:35:48.794Z,26.46
2017-04-23T10:36:29.378Z,26.94
2017-04-23T10:37:09.963Z,27.81
2017-04-23T10:37:50.553Z,27.91
2017-04-23T10:38:31.129Z,28.77
2017-04-23T10:39:11.712Z,29.44
2017-04-23T10:39:52.376Z,28.96
2017-04-23T10:40:34.257Z,28.58
2017-04-23T10:41:14.343Z,28.09
2017-04-23T10:41:55.315Z,27.81
2017-04-23T10:42:36.803Z,27.81
2017-04-23T10:43:18.231Z,26.75
2017-04-23T10:43:59.238Z,27.23
2017-04-23T10:44:40.291Z,27.82
2017-04-23T10:45:20.362Z,30.42
2017-04-23T10:46:02.288Z,29.94
2017-04-23T10:46:42.454Z,30.71
2017-04-23T10:47:23.271Z,31.87
2017-04-23T10:49:43.450Z,32.36
2017-04-23T10:52:03.132Z,30.35
2017-04-23T10:52:44.154Z,30.55
2017-04-23T10:53:24.092Z,30.55
2017-04-23T10:54:04.672Z,29
2017-04-23T10:54:45.264Z,30.45
2017-04-23T10:55:25.843Z,31.41
2017-04-23T10:56:06.428Z,31.12
2017-04-23T10:56:47.000Z,30.46
2017-04-23T10:57:27.704Z,30.27
2017-04-23T10:58:08.283Z,27.76
2017-04-23T10:58:48.860Z,27.19
2017-04-23T10:59:29.495Z,27
2017-04-23T11:00:10.511Z,26.33
2017-04-23T11:00:51.204Z,27.49
2017-04-23T11:01:31.946Z,28.16
2017-04-23T11:02:12.519Z,27.39
2017-04-23T11:02:53.150Z,27.2
2017-04-23T11:03:33.738Z,24.88
2017-04-23T11:04:14.338Z,25.08
2017-04-23T11:04:54.989Z,24.88
2017-04-23T11:05:35.568Z,24.5
2017-04-23T11:06:16.145Z,25.08
2017-04-23T11:06:56.733Z,25.37
2017-04-23T11:07:37.324Z,25.56
2017-04-23T11:08:17.896Z,24.11
2017-04-23T11:08:58.473Z,23.15
2017-04-23T11:09:39.058Z,22.19
2017-04-23T11:10:19.634Z,22.76
2017-04-23T11:11:00.213Z,23.34
2017-04-23T11:11:40.792Z,23.34
2017-04-23T11:12:21.373Z,22.96
2017-04-23T11:13:01.955Z,22.57
2017-04-23T11:13:42.530Z,22.67
2017-04-23T11:14:23.115Z,22.86
2017-04-23T11:15:03.704Z,24.21
2017-04-23T11:15:44.294Z,24.4
2017-04-23T11:16:24.873Z,22.86
2017-04-23T11:17:05.446Z,22.66
2017-04-23T11:17:46.030Z,23.33
2017-04-23T11:18:26.612Z,23.34
2017-04-23T11:19:07.197Z,24.01
2017-04-23T11:19:47.784Z,22.94
2017-04-23T11:20:28.358Z,23.72
2017-04-23T11:21:08.940Z,23.81
2017-04-23T11:21:49.520Z,22.94
2017-04-23T11:22:30.106Z,22.46
2017-04-23T11:23:10.688Z,23.04
2017-04-23T11:23:51.267Z,22.75
2017-04-23T11:24:31.849Z,22.27
2017-04-23T11:25:12.432Z,23.14
2017-04-23T11:25:53.012Z,23.14
2017-04-23T11:26:33.601Z,22.94
2017-04-23T11:27:14.160Z,22.94
2017-04-23T11:27:54.738Z,22.94
2017-04-23T11:28:35.322Z,23.24
2017-04-23T11:29:15.903Z,22.17
2017-04-23T11:29:56.486Z,22.75
2017-04-23T11:30:37.079Z,22.36
2017-04-23T11:31:17.649Z,22.27
2017-04-23T11:31:58.234Z,21.88
2017-04-23T11:32:38.808Z,22.27
2017-04-23T11:33:19.394Z,22.08
2017-04-23T11:33:59.974Z,22.17
2017-04-23T11:34:40.561Z,21.79
2017-04-23T11:35:21.153Z,23.04
2017-04-23T11:36:01.720Z,22.26
2017-04-23T11:36:42.440Z,22.55
2017-04-23T11:37:23.021Z,23.99
2017-04-23T11:38:03.783Z,22.64
2017-04-23T11:38:44.941Z,21.97
2017-04-23T11:39:25.990Z,22.26
2017-04-23T11:40:06.566Z,23.99
2017-04-23T11:40:47.152Z,22.93
2017-04-23T11:41:27.949Z,21.88
2017-04-23T11:42:08.787Z,23.03
2017-04-23T11:42:49.934Z,22.64
2017-04-23T11:43:30.757Z,22.26
2017-04-23T11:44:11.340Z,22.36
2017-04-23T11:44:51.951Z,22.26
2017-04-23T11:45:32.649Z,22.73
2017-04-23T11:46:13.244Z,22.92
2017-04-23T11:46:53.826Z,22.92
2017-04-23T11:47:34.409Z,22.53
2017-04-23T11:48:14.989Z,22.44
2017-04-23T11:48:55.575Z,22.83
2017-04-23T11:49:36.155Z,24.08
2017-04-23T11:50:16.734Z,25.33
2017-04-23T11:50:57.317Z,26.68
2017-04-23T11:51:38.116Z,27.16
2017-04-23T11:52:19.628Z,27.85
2017-04-23T11:53:00.220Z,28.23
2017-04-23T11:53:40.785Z,28.33
2017-04-23T11:54:21.386Z,28.33
2017-04-23T11:55:01.946Z,28.33
2017-04-23T11:55:42.531Z,28.25
2017-04-23T11:56:23.100Z,28.25
2017-04-23T11:57:03.704Z,28.25
2017-04-23T11:57:44.279Z,28.25
2017-04-23T11:58:24.849Z,28.26
2017-04-23T11:59:05.430Z,28.16
2017-04-23T11:59:46.005Z,28.74
2017-04-23T12:00:26.579Z,28.84
2017-04-23T12:01:07.159Z,28.26
2017-04-23T12:01:47.713Z,28.26
2017-04-23T12:02:28.286Z,28.74
2017-04-23T12:03:08.852Z,28.45
2017-04-23T12:03:49.518Z,28.45
2017-04-23T12:04:30.072Z,28.66
2017-04-23T12:05:10.645Z,28.95
2017-04-23T12:05:51.301Z,29.05
2017-04-23T12:06:31.894Z,29.03
2017-04-23T12:07:12.459Z,28.85
2017-04-23T12:07:53.034Z,29.34
2017-04-23T12:08:33.606Z,29.24
2017-04-23T12:09:14.173Z,27.12
2017-04-23T12:09:54.753Z,24.51
2017-04-23T12:10:35.323Z,23.16
2017-04-23T12:11:15.887Z,21.33
2017-04-23T12:11:56.446Z,21.13
2017-04-23T12:12:37.034Z,22.29
2017-04-23T12:13:17.621Z,22.77
2017-04-23T12:13:58.192Z,21.89
2017-04-23T12:14:38.764Z,22.86
2017-04-23T12:15:19.338Z,23.44
2017-04-23T12:15:59.901Z,25.08
2017-04-23T12:16:40.478Z,24.4
2017-04-23T12:17:21.048Z,23.44
2017-04-23T12:18:01.606Z,22.96
2017-04-23T12:18:42.180Z,23.82
2017-04-23T12:19:22.758Z,22.38
2017-04-23T12:20:03.327Z,23.33
2017-04-23T12:20:43.901Z,23.33
2017-04-23T12:21:24.479Z,22.94
2017-04-23T12:22:05.045Z,22.27
2017-04-23T12:22:45.619Z,21.5
2017-04-23T12:23:26.199Z,21.98
2017-04-23T12:24:06.831Z,22.56
2017-04-23T12:24:47.415Z,22.36
2017-04-23T12:25:28.003Z,23.43
2017-04-23T12:26:08.809Z,22.27
2017-04-23T12:26:49.395Z,21.98
2017-04-23T12:27:29.973Z,21.21
2017-04-23T12:28:10.557Z,21.01
2017-04-23T12:28:51.257Z,21.5
2017-04-23T12:29:31.837Z,22.17
2017-04-23T12:30:12.450Z,22.36
2017-04-23T12:30:53.029Z,22.64
2017-04-23T12:31:33.707Z,22.64
2017-04-23T12:32:14.294Z,22.16
2017-04-23T12:32:55.063Z,22.84
2017-04-23T12:33:35.646Z,23.32
2017-04-23T12:34:16.228Z,21.88
2017-04-23T12:34:56.807Z,23.03
2017-04-23T12:35:37.388Z,22.64
2017-04-23T12:36:17.969Z,23.11
2017-04-23T12:36:58.551Z,23.32
2017-04-23T12:37:39.133Z,22.84
2017-04-23T12:38:19.701Z,22.26
2017-04-23T12:39:00.404Z,22.26
2017-04-23T12:39:41.153Z,22.55
2017-04-23T12:40:22.230Z,22.16
2017-04-23T12:41:03.380Z,23.22
2017-04-23T12:41:44.116Z,22.93
2017-04-23T12:42:25.046Z,23.22
2017-04-23T12:43:05.828Z,22.93
2017-04-23T12:43:46.598Z,23.22
2017-04-23T12:44:27.331Z,23.99
2017-04-23T12:45:08.206Z,23.03
2017-04-23T12:45:48.996Z,23.32
2017-04-23T12:46:29.737Z,22.26
2017-04-23T12:47:10.327Z,22.93
2017-04-23T12:47:51.115Z,22.64
2017-04-23T12:48:31.850Z,22.93
2017-04-23T12:49:12.748Z,23.13
2017-04-23T12:49:53.639Z,23.41
2017-04-23T12:50:34.476Z,23.51
2017-04-23T12:51:15.334Z,23.03
2017-04-23T12:51:55.923Z,22.84
2017-04-23T12:52:36.502Z,22.93
2017-04-23T12:53:17.081Z,23.22
2017-04-23T12:53:57.660Z,22.74
2017-04-23T12:54:38.242Z,21.58
2017-04-23T12:55:18.820Z,22.84
2017-04-23T12:55:59.405Z,21.68
2017-04-23T12:56:39.987Z,21.1
2017-04-23T12:57:20.575Z,21.68
2017-04-23T12:58:01.150Z,21.58
2017-04-23T12:58:41.733Z,21.48
2017-04-23T12:59:22.318Z,21.2
2017-04-23T13:00:02.898Z,20.62
2017-04-23T13:00:43.475Z,20.81
2017-04-23T13:01:24.065Z,21.3
2017-04-23T13:02:04.639Z,21.09
2017-04-23T13:02:45.221Z,20.9
2017-04-23T13:03:25.803Z,21.19
2017-04-23T13:04:06.394Z,21.67
2017-04-23T13:04:46.967Z,21.96
2017-04-23T13:05:27.561Z,21.96
2017-04-23T13:06:08.147Z,21.86
2017-04-23T13:06:48.937Z,21.86
2017-04-23T13:07:29.947Z,21.28
2017-04-23T13:08:10.686Z,21.09
2017-04-23T13:08:51.488Z,20.7
2017-04-23T13:09:32.293Z,20.7
2017-04-23T13:10:13.084Z,21.38
2017-04-23T13:10:53.773Z,21.86
2017-04-23T13:11:34.807Z,21.09
2017-04-23T13:12:15.659Z,21.96
2017-04-23T13:12:56.469Z,21.77
2017-04-23T13:13:37.067Z,21.3
2017-04-23T13:14:17.712Z,21.09
2017-04-23T13:14:58.685Z,21
2017-04-23T13:15:39.296Z,21.19
2017-04-23T13:16:20.521Z,22.15
2017-04-23T13:17:01.558Z,21.96
2017-04-23T13:17:42.823Z,21.96
2017-04-23T13:18:23.476Z,21.38
2017-04-23T13:19:04.152Z,21.3
2017-04-23T13:19:45.225Z,21.38
2017-04-23T13:20:26.232Z,21.86
2017-04-23T13:21:07.849Z,21.77
2017-04-23T13:21:48.609Z,20.9
2017-04-23T13:22:29.211Z,21.09
2017-04-23T13:23:10.024Z,21.58
2017-04-23T13:23:50.654Z,21.58
2017-04-23T13:24:31.238Z,20.9
2017-04-23T13:25:12.064Z,20.8
2017-04-23T13:25:52.880Z,21.09
2017-04-23T13:26:33.675Z,21.28
2017-04-23T13:27:14.517Z,21
2017-04-23T13:27:55.315Z,20.8
2017-04-23T13:28:36.229Z,21.38
2017-04-23T13:29:17.091Z,21.19
2017-04-23T13:29:58.083Z,21.19
2017-04-23T13:30:39.101Z,22.15
2017-04-23T13:31:20.193Z,22.73
2017-04-23T13:32:00.902Z,25.71
2017-04-23T13:32:41.948Z,24.95
2017-04-23T13:33:22.882Z,24.85
2017-04-23T13:34:04.121Z,25.33
2017-04-23T13:34:45.104Z,24.46
2017-04-23T13:35:25.723Z,24.37
2017-04-23T13:36:06.300Z,24.37
2017-04-23T13:36:47.100Z,24.27
2017-04-23T13:37:28.061Z,23
2017-04-23T13:38:08.636Z,23
2017-04-23T13:38:49.487Z,22.33
2017-04-23T13:39:30.275Z,22.91
2017-04-23T13:40:10.929Z,22.14
2017-04-23T13:40:51.701Z,23.3
2017-04-23T13:41:32.285Z,24.45
2017-04-23T13:42:13.087Z,24.27
2017-04-23T13:42:54.009Z,23.98
2017-04-23T13:43:34.978Z,23.98
2017-04-23T13:44:15.573Z,23.88
2017-04-23T13:44:56.564Z,24.27
2017-04-23T13:45:37.405Z,23.69
2017-04-23T13:46:18.180Z,23.02
2017-04-23T13:46:58.774Z,22.92
2017-04-23T13:47:39.531Z,22.73
2017-04-23T13:48:20.394Z,23.5
2017-04-23T13:49:00.969Z,22.92
2017-04-23T13:49:41.587Z,23.21
2017-04-23T13:50:22.523Z,23.21
2017-04-23T13:51:03.456Z,23.02
2017-04-23T13:51:44.029Z,24.07
2017-04-23T13:52:24.892Z,24.27
2017-04-23T13:53:05.463Z,23.79
2017-04-23T13:53:46.349Z,23.87
2017-04-23T13:54:26.926Z,23.49
2017-04-23T13:55:07.605Z,23.97
2017-04-23T13:55:48.181Z,23.11
2017-04-23T13:56:28.983Z,22.53
2017-04-23T13:57:09.801Z,22.73
2017-04-23T13:57:50.380Z,23.69
2017-04-23T13:58:31.489Z,23.98
2017-04-23T13:59:12.226Z,23.02
2017-04-23T13:59:53.202Z,23.21
2017-04-23T14:00:33.792Z,22.05
2017-04-23T14:01:14.788Z,22.25
2017-04-23T14:01:55.547Z,22.25
2017-04-23T14:02:36.447Z,22.83
2017-04-23T14:03:17.037Z,22.73
2017-04-23T14:03:57.708Z,23.21
2017-04-23T14:04:38.282Z,22.83
2017-04-23T14:05:19.024Z,22.83
2017-04-23T14:05:59.945Z,22.93
2017-04-23T14:06:40.522Z,22.53
2017-04-23T14:07:21.102Z,22.36
2017-04-23T14:08:01.669Z,22.06
2017-04-23T14:08:42.622Z,21
2017-04-23T14:09:23.193Z,21.38
2017-04-23T14:10:03.796Z,21.86
2017-04-23T14:10:44.369Z,23.02
2017-04-23T14:11:25.910Z,21.38
2017-04-23T14:12:06.503Z,21.09
2017-04-23T14:12:47.143Z,21.09
2017-04-23T14:13:27.717Z,21.58
2017-04-23T14:14:08.293Z,21.67
2017-04-23T14:14:48.868Z,21.28
2017-04-23T14:15:29.452Z,23.02
2017-04-23T14:16:10.121Z,23.98
2017-04-23T14:16:51.031Z,22.92
2017-04-23T14:17:31.785Z,22.73
2017-04-23T14:18:12.587Z,23.6
2017-04-23T14:18:53.347Z,22.83
2017-04-23T14:19:34.003Z,23.88
2017-04-23T14:20:14.584Z,23.4
2017-04-23T14:20:55.413Z,23.31
2017-04-23T14:21:37.137Z,21.96
2017-04-23T14:22:16.930Z,22.63
2017-04-23T14:22:57.693Z,22.44
2017-04-23T14:23:38.282Z,22.73
2017-04-23T14:24:18.869Z,23.11
2017-04-23T14:24:59.768Z,22.25
2017-04-23T14:25:40.395Z,23.69
2017-04-23T14:26:21.945Z,23.69
2017-04-23T14:27:02.558Z,23.11
2017-04-23T14:27:43.493Z,23.98
2017-04-23T14:28:24.271Z,23.21